Llantrisant, United Kingdom
Current Conditions -  °F | °C
As of 11:50 AM on Thursday 23 Oct 2014 (Local Time) from EGFF Reporting Station
Broken Clouds Broken Clouds  
Wind Chill: 14°   Ceiling: 1100
Heat Index: 14°   Visibility: 6mi
Dew Point: 13°   Wind: 7mph
Humidity: 94%   Direction: 210°SSW
Pressure: 30.09"   Gusts: NA
Location:  51.54°N, 3.37°W
Report Text: EGFF 231050Z 21006KT 9999 FEW009 BKN011 14/13 Q1019
Loading
Personal Weather Stations






























Interactive Weather Map
Tropical Storm Tracking
New forecast layout! Learn more

10-Day Weather Forecast

Advertisements
Track Severe Weather on mobile